createdAt,value
2023-04-21T00:01:34.069Z,10.17
2023-04-21T00:04:05.778Z,15.63
2023-04-21T00:06:37.330Z,12.87
2023-04-21T00:09:08.873Z,17.97
2023-04-21T00:11:40.166Z,15.17
2023-04-21T00:14:11.439Z,14.67
2023-04-21T00:16:42.747Z,20.73
2023-04-21T00:19:15.238Z,10.83
2023-04-21T00:21:46.506Z,15.27
2023-04-21T00:24:17.796Z,14.67
2023-04-21T00:26:49.089Z,11.50
2023-04-21T00:29:20.517Z,17.60
2023-04-21T00:31:51.962Z,26.13
2023-04-21T00:34:23.292Z,16.37
2023-04-21T00:36:55.568Z,17.60
2023-04-21T00:39:26.845Z,17.20
2023-04-21T00:41:58.119Z,14.50
2023-04-21T00:44:29.478Z,12.33
2023-04-21T00:47:00.940Z,13.40
2023-04-21T00:49:32.716Z,12.73
2023-04-21T00:52:07.215Z,14.33
2023-04-21T00:54:39.747Z,15.23
2023-04-21T00:57:11.595Z,11.13
2023-04-21T00:59:43.454Z,13.33
2023-04-21T01:02:16.820Z,14.83
2023-04-21T01:04:48.489Z,14.70
2023-04-21T01:07:20.388Z,16.83
2023-04-21T01:09:51.663Z,16.00
2023-04-21T01:12:22.958Z,11.87
2023-04-21T01:14:54.345Z,14.97
2023-04-21T01:17:25.727Z,13.93
2023-04-21T01:20:01.698Z,12.30
2023-04-21T01:22:33.007Z,13.45
2023-04-21T01:25:04.759Z,16.30
2023-04-21T01:27:36.307Z,16.27
2023-04-21T01:30:08.721Z,12.03
2023-04-21T01:32:40.109Z,12.70
2023-04-21T01:35:11.430Z,12.23
2023-04-21T01:37:42.862Z,14.37
2023-04-21T01:40:14.240Z,14.60
2023-04-21T01:42:45.629Z,12.13
2023-04-21T01:45:16.951Z,12.03
2023-04-21T01:47:48.295Z,12.13
2023-04-21T01:50:19.641Z,13.03
2023-04-21T01:52:51.083Z,10.40
2023-04-21T01:55:22.534Z,14.50
2023-04-21T01:57:53.805Z,13.57
2023-04-21T02:00:26.516Z,15.63
2023-04-21T02:02:57.911Z,16.53
2023-04-21T02:05:29.340Z,13.60
2023-04-21T02:08:00.751Z,15.10
2023-04-21T02:10:32.126Z,11.50
2023-04-21T02:13:03.429Z,15.63
2023-04-21T02:15:34.763Z,16.20
2023-04-21T02:18:06.561Z,12.20
2023-04-21T02:20:38.800Z,14.47
2023-04-21T02:23:10.224Z,16.80
2023-04-21T02:25:41.527Z,16.30
2023-04-21T02:28:12.803Z,14.33
2023-04-21T02:30:44.079Z,12.60
2023-04-21T02:33:15.457Z,11.63
2023-04-21T02:35:46.850Z,12.67
2023-04-21T02:38:18.110Z,13.07
2023-04-21T02:40:50.567Z,15.87
2023-04-21T02:43:21.885Z,10.77
2023-04-21T02:45:53.238Z,16.03
2023-04-21T02:48:24.619Z,13.30
2023-04-21T02:50:55.912Z,13.83
2023-04-21T02:53:27.217Z,19.20
2023-04-21T02:55:58.511Z,11.20
2023-04-21T02:58:29.915Z,10.73
2023-04-21T03:01:02.455Z,13.10
2023-04-21T03:03:34.039Z,12.23
2023-04-21T03:06:05.924Z,14.27
2023-04-21T03:08:37.220Z,16.83
2023-04-21T03:11:08.515Z,15.67
2023-04-21T03:13:39.808Z,11.00
2023-04-21T03:16:11.428Z,20.93
2023-04-21T03:18:42.727Z,18.23
2023-04-21T03:21:13.989Z,12.03
2023-04-21T03:23:45.332Z,14.40
2023-04-21T03:26:16.744Z,15.03
2023-04-21T03:28:48.290Z,13.63
2023-04-21T03:31:19.580Z,20.83
2023-04-21T03:33:50.852Z,18.87
2023-04-21T03:36:22.231Z,11.97
2023-04-21T03:38:53.537Z,14.40
2023-04-21T03:41:24.912Z,12.73
2023-04-21T03:43:56.210Z,13.97
2023-04-21T03:46:27.631Z,11.03
2023-04-21T03:48:59.427Z,11.93
2023-04-21T03:51:32.376Z,10.87
2023-04-21T03:54:03.712Z,9.67
2023-04-21T03:56:35.097Z,15.00
2023-04-21T03:59:06.502Z,12.97
2023-04-21T04:01:37.852Z,14.60
2023-04-21T04:04:09.388Z,11.90
2023-04-21T04:06:40.871Z,10.93
2023-04-21T04:09:12.141Z,14.03
2023-04-21T04:11:43.433Z,15.07
2023-04-21T04:14:14.834Z,18.13
2023-04-21T04:16:46.147Z,12.23
2023-04-21T04:19:17.713Z,12.50
2023-04-21T04:21:49.356Z,14.37
2023-04-21T04:24:21.527Z,12.60
2023-04-21T04:26:57.749Z,14.90
2023-04-21T04:32:01.721Z,12.63
2023-04-21T04:34:33.115Z,15.17
2023-04-21T04:37:04.612Z,12.97
2023-04-21T04:39:37.005Z,15.40
2023-04-21T04:42:11.699Z,16.73
2023-04-21T04:44:42.977Z,20.73
2023-04-21T04:47:14.340Z,17.13
2023-04-21T04:49:45.855Z,12.53
2023-04-21T04:52:17.152Z,16.40
2023-04-21T04:54:48.445Z,16.50
2023-04-21T04:57:19.717Z,13.83
2023-04-21T04:59:55.931Z,10.70
2023-04-21T05:04:58.851Z,14.53
2023-04-21T05:07:30.215Z,12.17
2023-04-21T05:10:02.375Z,13.03
2023-04-21T05:12:33.724Z,15.20
2023-04-21T05:15:06.457Z,15.27
2023-04-21T05:17:37.816Z,12.03
2023-04-21T05:20:09.640Z,13.00
2023-04-21T05:22:41.281Z,13.07
2023-04-21T05:25:15.599Z,14.37
2023-04-21T05:27:48.196Z,15.37
2023-04-21T05:30:19.599Z,12.93
2023-04-21T05:32:51.607Z,14.27
2023-04-21T05:35:23.097Z,15.63
2023-04-21T05:37:54.442Z,16.57
2023-04-21T05:40:25.891Z,12.67
2023-04-21T05:42:57.249Z,13.63
2023-04-21T05:45:28.590Z,13.23
2023-04-21T05:47:59.889Z,16.47
2023-04-21T05:50:33.946Z,14.30
2023-04-21T05:53:05.346Z,16.13
2023-04-21T05:55:37.209Z,18.33
2023-04-21T05:58:08.602Z,12.97
2023-04-21T06:00:39.910Z,15.33
2023-04-21T06:03:11.314Z,13.03
2023-04-21T06:05:42.771Z,13.77
2023-04-21T06:08:14.120Z,12.70
2023-04-21T06:10:45.471Z,12.63
2023-04-21T06:13:16.837Z,12.60
2023-04-21T06:15:48.193Z,13.57
2023-04-21T06:18:19.598Z,13.33
2023-04-21T06:20:51.981Z,11.63
2023-04-21T06:23:23.354Z,14.17
2023-04-21T06:26:04.109Z,11.50
2023-04-21T06:28:37.027Z,14.83
2023-04-21T06:31:09.677Z,14.87
2023-04-21T06:33:45.302Z,11.47
2023-04-21T06:36:18.099Z,11.65
2023-04-21T06:38:49.743Z,18.30
2023-04-21T06:41:22.895Z,14.30
2023-04-21T06:43:55.698Z,11.60
2023-04-21T06:46:27.049Z,15.27
2023-04-21T06:48:58.494Z,14.87
2023-04-21T06:51:30.508Z,11.77
2023-04-21T06:54:01.962Z,13.47
2023-04-21T06:56:34.235Z,15.43
2023-04-21T06:59:05.514Z,9.53
2023-04-21T07:01:36.997Z,10.47
2023-04-21T07:04:08.600Z,13.40
2023-04-21T07:06:50.421Z,15.47
2023-04-21T07:09:29.676Z,11.00
2023-04-21T07:12:01.082Z,13.20
2023-04-21T07:14:32.396Z,9.97
2023-04-21T07:17:03.875Z,9.63
2023-04-21T07:19:35.433Z,8.87
2023-04-21T07:22:06.714Z,11.17
2023-04-21T07:24:38.147Z,12.13
2023-04-21T07:27:09.522Z,16.17
2023-04-21T07:29:40.942Z,10.07
2023-04-21T07:32:12.274Z,13.60
2023-04-21T07:34:46.803Z,12.03
2023-04-21T07:37:18.220Z,11.40
2023-04-21T07:39:49.824Z,11.37
2023-04-21T07:42:21.211Z,12.17
2023-04-21T07:44:53.071Z,11.97
2023-04-21T07:47:24.614Z,12.10
2023-04-21T07:49:56.006Z,8.93
2023-04-21T07:52:27.349Z,11.27
2023-04-21T07:54:58.665Z,12.50
2023-04-21T07:57:31.820Z,12.13
2023-04-21T08:00:03.938Z,12.87
2023-04-21T08:02:35.325Z,11.63
2023-04-21T08:05:07.192Z,9.87
2023-04-21T08:07:39.393Z,10.87
2023-04-21T08:10:10.793Z,10.60
2023-04-21T08:12:42.135Z,11.20
2023-04-21T08:15:13.480Z,12.87
2023-04-21T08:17:44.853Z,11.47
2023-04-21T08:20:16.267Z,11.17
2023-04-21T08:22:48.737Z,14.53
2023-04-21T08:25:20.235Z,9.37
2023-04-21T08:27:51.563Z,11.77
2023-04-21T08:30:22.920Z,10.77
2023-04-21T08:32:54.393Z,10.93
2023-04-21T08:35:25.998Z,10.50
2023-04-21T08:37:57.620Z,12.63
2023-04-21T08:40:36.097Z,10.77
2023-04-21T08:43:08.292Z,13.50
2023-04-21T08:45:41.055Z,11.37
2023-04-21T08:48:16.367Z,9.47
2023-04-21T08:50:50.276Z,10.90
2023-04-21T08:53:21.767Z,14.50
2023-04-21T08:56:10.076Z,10.63
2023-04-21T08:58:42.471Z,13.47
2023-04-21T09:01:13.865Z,9.70
2023-04-21T09:03:47.003Z,9.87
2023-04-21T09:06:19.048Z,12.93
2023-04-21T09:08:58.326Z,10.57
2023-04-21T09:11:34.322Z,10.47
2023-04-21T09:16:37.087Z,13.40
2023-04-21T09:19:16.208Z,9.57
2023-04-21T09:21:47.507Z,14.30
2023-04-21T09:24:20.156Z,8.53
2023-04-21T09:26:53.061Z,13.80
2023-04-21T09:29:25.458Z,10.03
2023-04-21T09:31:57.120Z,8.77
2023-04-21T09:34:29.050Z,11.45
2023-04-21T09:37:02.917Z,9.90
2023-04-21T09:39:46.341Z,10.13
2023-04-21T09:42:30.152Z,13.20
2023-04-21T09:45:28.457Z,10.32
2023-04-21T09:47:57.529Z,8.57
2023-04-21T09:53:24.056Z,8.95
2023-04-21T09:55:58.442Z,9.48
2023-04-21T09:58:37.789Z,11.35
2023-04-21T10:01:09.600Z,12.10
2023-04-21T10:03:43.503Z,10.93
2023-04-21T10:06:15.406Z,10.82
2023-04-21T10:08:47.425Z,10.10
2023-04-21T10:11:18.889Z,11.73
2023-04-21T10:13:50.993Z,8.48
2023-04-21T10:16:23.168Z,7.85
2023-04-21T10:18:54.635Z,9.73
2023-04-21T10:21:26.834Z,11.65
2023-04-21T10:23:59.133Z,10.73
2023-04-21T10:26:35.319Z,8.55
2023-04-21T10:29:09.434Z,9.50
2023-04-21T10:31:54.080Z,8.07
2023-04-21T10:34:36.640Z,8.55
2023-04-21T10:37:12.528Z,11.73
2023-04-21T10:42:25.657Z,10.23
2023-04-21T10:44:57.100Z,8.50
2023-04-21T10:47:36.735Z,8.43
2023-04-21T10:50:31.516Z,12.38
2023-04-21T10:53:11.293Z,9.02
2023-04-21T10:55:49.089Z,7.47
2023-04-21T10:58:24.270Z,10.40
2023-04-21T11:00:56.615Z,11.75
2023-04-21T11:03:35.837Z,9.50
2023-04-21T11:06:17.902Z,7.65
2023-04-21T11:08:57.357Z,8.88
2023-04-21T11:11:28.747Z,14.10
2023-04-21T11:14:00.285Z,10.73
2023-04-21T11:16:31.780Z,8.57
2023-04-21T11:19:03.188Z,9.05
2023-04-21T11:21:34.542Z,8.85
2023-04-21T11:24:06.096Z,8.07
2023-04-21T11:26:42.539Z,8.82
2023-04-21T11:29:14.467Z,9.52
2023-04-21T11:31:50.145Z,8.95
2023-04-21T11:34:22.444Z,11.00
2023-04-21T11:36:55.761Z,10.05
2023-04-21T11:39:27.066Z,7.00
2023-04-21T11:41:58.503Z,7.97
2023-04-21T11:44:38.245Z,9.35
2023-04-21T11:47:13.218Z,8.13
2023-04-21T11:49:50.512Z,8.23
2023-04-21T11:52:43.383Z,8.32
2023-04-21T11:55:18.565Z,8.05
2023-04-21T11:57:51.320Z,14.55
2023-04-21T12:00:22.817Z,9.48
2023-04-21T12:02:56.402Z,8.18
2023-04-21T12:05:36.060Z,9.05
2023-04-21T12:08:14.711Z,9.55
2023-04-21T12:10:46.950Z,7.80
2023-04-21T12:13:24.810Z,9.23
2023-04-21T12:15:56.198Z,8.75
2023-04-21T12:18:27.658Z,8.77
2023-04-21T12:21:01.669Z,8.45
2023-04-21T12:23:33.052Z,6.80
2023-04-21T12:26:04.580Z,13.88
2023-04-21T12:28:36.222Z,10.02
2023-04-21T12:31:07.640Z,5.03
2023-04-21T12:33:39.514Z,5.40
2023-04-21T12:36:11.176Z,5.90
2023-04-21T12:38:43.072Z,9.20
2023-04-21T12:41:14.384Z,6.93
2023-04-21T12:43:45.839Z,9.18
2023-04-21T12:46:17.388Z,5.47
2023-04-21T12:48:48.843Z,9.00
2023-04-21T12:51:20.208Z,8.65
2023-04-21T12:53:52.068Z,7.38
2023-04-21T12:56:23.473Z,4.68
2023-04-21T12:58:54.764Z,4.65
2023-04-21T13:01:26.180Z,8.50
2023-04-21T13:03:57.814Z,5.05
2023-04-21T13:06:29.441Z,4.88
2023-04-21T13:09:01.716Z,6.53
2023-04-21T13:11:33.402Z,4.95
2023-04-21T13:14:04.709Z,5.65
2023-04-21T13:16:36.196Z,8.15
2023-04-21T13:19:07.489Z,5.32
2023-04-21T13:21:38.922Z,6.38
2023-04-21T13:24:14.356Z,5.28
2023-04-21T13:29:17.496Z,11.07
2023-04-21T13:31:48.828Z,9.65
2023-04-21T13:34:20.263Z,8.13
2023-04-21T13:36:51.572Z,9.00
2023-04-21T13:39:23.028Z,11.05
2023-04-21T13:41:54.459Z,8.18
2023-04-21T13:44:25.892Z,7.43
2023-04-21T13:46:57.445Z,5.50
2023-04-21T13:49:28.930Z,6.78
2023-04-21T13:52:00.238Z,5.90
2023-04-21T13:54:31.797Z,7.63
2023-04-21T13:57:03.619Z,7.75
2023-04-21T13:59:35.116Z,7.72
2023-04-21T14:02:06.885Z,9.85
2023-04-21T14:04:38.563Z,9.23
2023-04-21T14:07:10.233Z,9.75
2023-04-21T14:09:41.517Z,13.55
2023-04-21T14:12:12.847Z,8.52
2023-04-21T14:14:44.164Z,7.35
2023-04-21T14:17:16.949Z,5.60
2023-04-21T14:19:48.422Z,8.48
2023-04-21T14:22:20.547Z,14.27
2023-04-21T14:24:51.898Z,8.13
2023-04-21T14:27:23.242Z,10.73
2023-04-21T14:29:54.533Z,7.30
2023-04-21T14:32:26.434Z,9.15
2023-04-21T14:34:59.703Z,7.07
2023-04-21T14:37:31.035Z,6.65
2023-04-21T14:40:03.869Z,11.40
2023-04-21T14:42:35.582Z,9.10
2023-04-21T14:45:08.112Z,5.90
2023-04-21T14:47:39.531Z,6.38
2023-04-21T14:50:11.022Z,6.65
2023-04-21T14:52:42.353Z,9.18
2023-04-21T14:55:13.722Z,8.00
2023-04-21T14:57:45.083Z,8.23
2023-04-21T15:00:16.878Z,7.03
2023-04-21T15:02:48.251Z,9.27
2023-04-21T15:05:19.850Z,9.88
2023-04-21T15:07:51.599Z,7.80
2023-04-21T15:10:22.873Z,7.40
2023-04-21T15:12:54.241Z,7.07
2023-04-21T15:15:25.544Z,7.07
2023-04-21T15:17:56.948Z,7.25
2023-04-21T15:20:41.066Z,6.25
2023-04-21T15:23:16.468Z,6.75
2023-04-21T15:25:47.836Z,7.10
2023-04-21T15:28:19.113Z,5.20
2023-04-21T15:30:50.547Z,6.97
2023-04-21T15:33:21.882Z,6.22
2023-04-21T15:35:53.201Z,6.00
2023-04-21T15:38:24.486Z,5.72
2023-04-21T15:41:01.114Z,5.22
2023-04-21T15:43:33.093Z,6.88
2023-04-21T15:46:12.867Z,9.18
2023-04-21T15:48:44.294Z,9.02
2023-04-21T15:51:15.921Z,6.40
2023-04-21T15:53:48.551Z,7.57
2023-04-21T15:56:19.885Z,4.47
2023-04-21T15:58:51.400Z,4.63
2023-04-21T16:01:22.873Z,8.18
2023-04-21T16:03:54.299Z,5.80
2023-04-21T16:06:26.584Z,6.35
2023-04-21T16:08:58.063Z,7.28
2023-04-21T16:11:29.464Z,8.90
2023-04-21T16:14:01.255Z,7.47
2023-04-21T16:16:32.727Z,7.28
2023-04-21T16:19:04.116Z,8.77
2023-04-21T16:21:36.276Z,7.47
2023-04-21T16:24:08.741Z,7.57
2023-04-21T16:26:40.866Z,8.82
2023-04-21T16:29:12.220Z,9.45
2023-04-21T16:31:43.596Z,11.70
2023-04-21T16:34:16.084Z,4.38
2023-04-21T16:36:47.595Z,5.07
2023-04-21T16:39:18.967Z,9.82
2023-04-21T16:41:50.621Z,7.25
2023-04-21T16:44:22.008Z,8.20
2023-04-21T16:46:53.452Z,7.72
2023-04-21T16:49:24.922Z,6.30
2023-04-21T16:51:56.381Z,10.38
2023-04-21T16:54:27.748Z,7.75
2023-04-21T16:56:59.189Z,5.68
2023-04-21T16:59:32.365Z,8.93
2023-04-21T17:02:04.438Z,5.35
2023-04-21T17:04:37.241Z,8.55
2023-04-21T17:07:08.761Z,6.28
2023-04-21T17:09:40.739Z,6.88
2023-04-21T17:12:12.161Z,9.25
2023-04-21T17:14:43.488Z,5.75
2023-04-21T17:17:14.841Z,6.93
2023-04-21T17:19:46.164Z,6.05
2023-04-21T17:22:17.454Z,6.15
2023-04-21T17:24:53.712Z,6.15
2023-04-21T17:27:25.499Z,8.05
2023-04-21T17:29:56.975Z,7.50
2023-04-21T17:32:29.557Z,6.15
2023-04-21T17:35:02.642Z,7.35
2023-04-21T17:37:34.368Z,6.32
2023-04-21T17:40:07.713Z,6.88
2023-04-21T17:42:40.236Z,6.95
2023-04-21T17:45:11.803Z,6.32
2023-04-21T17:47:43.313Z,8.10
2023-04-21T17:50:14.782Z,6.47
2023-04-21T17:52:46.084Z,7.07
2023-04-21T17:55:17.509Z,7.55
2023-04-21T17:57:49.072Z,6.53
2023-04-21T18:00:20.573Z,11.63
2023-04-21T18:02:51.963Z,7.20
2023-04-21T18:05:23.383Z,6.72
2023-04-21T18:07:54.901Z,5.90
2023-04-21T18:10:28.975Z,8.40
2023-04-21T18:13:01.173Z,7.32
2023-04-21T18:15:32.904Z,7.57
2023-04-21T18:18:04.370Z,6.38
2023-04-21T18:20:36.472Z,4.80
2023-04-21T18:23:08.591Z,6.63
2023-04-21T18:25:43.026Z,7.93
2023-04-21T18:28:14.609Z,8.73
2023-04-21T18:30:46.564Z,7.97
2023-04-21T18:33:18.595Z,9.43
2023-04-21T18:35:50.261Z,7.77
2023-04-21T18:38:21.811Z,7.40
2023-04-21T18:40:53.146Z,5.53
2023-04-21T18:43:24.555Z,5.20
2023-04-21T18:45:55.984Z,12.07
2023-04-21T18:48:27.286Z,8.10
2023-04-21T18:50:59.056Z,5.20
2023-04-21T18:53:30.448Z,5.97
2023-04-21T18:56:01.781Z,9.27
2023-04-21T18:58:33.037Z,5.77
2023-04-21T19:01:04.546Z,5.97
2023-04-21T19:03:36.003Z,7.73
2023-04-21T19:06:07.423Z,8.17
2023-04-21T19:08:42.494Z,7.70
2023-04-21T19:11:15.796Z,10.20
2023-04-21T19:13:48.089Z,11.70
2023-04-21T19:16:20.022Z,5.60
2023-04-21T19:18:52.180Z,9.47
2023-04-21T19:21:23.576Z,6.83
2023-04-21T19:23:55.227Z,4.83
2023-04-21T19:26:27.314Z,5.77
2023-04-21T19:28:58.728Z,6.93
2023-04-21T19:31:30.374Z,6.37
2023-04-21T19:34:01.636Z,7.70
2023-04-21T19:36:33.746Z,8.23
2023-04-21T19:39:06.774Z,6.27
2023-04-21T19:41:38.147Z,7.13
2023-04-21T19:44:09.491Z,7.20
2023-04-21T19:46:42.666Z,6.73
2023-04-21T19:49:14.691Z,10.57
2023-04-21T19:51:46.048Z,8.80
2023-04-21T19:54:17.471Z,6.00
2023-04-21T19:56:48.744Z,7.57
2023-04-21T19:59:20.059Z,8.20
2023-04-21T20:01:51.480Z,7.17
2023-04-21T20:04:22.872Z,8.63
2023-04-21T20:06:54.472Z,7.97
2023-04-21T20:09:25.751Z,6.53
2023-04-21T20:11:57.792Z,6.20
2023-04-21T20:14:29.054Z,6.37
2023-04-21T20:17:00.696Z,7.17
2023-04-21T20:19:32.082Z,9.00
2023-04-21T20:22:03.496Z,8.03
2023-04-21T20:24:34.789Z,6.00
2023-04-21T20:27:08.652Z,9.13
2023-04-21T20:29:41.014Z,8.93
2023-04-21T20:32:12.420Z,10.10
2023-04-21T20:34:43.973Z,8.53
2023-04-21T20:37:16.022Z,6.97
2023-04-21T20:39:47.372Z,11.60
2023-04-21T20:42:19.232Z,10.83
2023-04-21T20:44:51.065Z,5.17
2023-04-21T20:47:22.552Z,6.20
2023-04-21T20:49:54.732Z,8.10
2023-04-21T20:52:26.252Z,5.43
2023-04-21T20:54:57.552Z,6.97
2023-04-21T20:57:28.904Z,6.17
2023-04-21T21:00:00.350Z,5.63
2023-04-21T21:02:31.809Z,7.93
2023-04-21T21:05:04.205Z,7.37
2023-04-21T21:07:35.691Z,5.53
2023-04-21T21:10:08.093Z,6.63
2023-04-21T21:12:39.491Z,6.00
2023-04-21T21:15:11.655Z,7.10
2023-04-21T21:17:43.118Z,7.60
2023-04-21T21:20:14.586Z,6.40
2023-04-21T21:22:45.896Z,6.07
2023-04-21T21:25:17.332Z,6.00
2023-04-21T21:27:48.682Z,7.20
2023-04-21T21:30:20.159Z,5.83
2023-04-21T21:32:53.663Z,4.77
2023-04-21T21:35:25.045Z,6.60
2023-04-21T21:37:56.408Z,6.07
2023-04-21T21:40:28.093Z,4.63
2023-04-21T21:42:59.405Z,5.83
2023-04-21T21:45:30.785Z,4.97
2023-04-21T21:48:02.251Z,9.90
2023-04-21T21:50:33.743Z,7.23
2023-04-21T21:53:05.038Z,9.50
2023-04-21T21:55:36.494Z,7.60
2023-04-21T21:58:07.917Z,5.80
2023-04-21T22:00:39.974Z,8.90
2023-04-21T22:03:11.419Z,5.97
2023-04-21T22:05:42.952Z,4.60
2023-04-21T22:08:15.496Z,6.57
2023-04-21T22:10:46.848Z,6.03
2023-04-21T22:13:18.130Z,7.73
2023-04-21T22:15:49.529Z,7.60
2023-04-21T22:18:20.922Z,6.60
2023-04-21T22:20:52.258Z,5.43
2023-04-21T22:23:23.602Z,7.90
2023-04-21T22:25:54.951Z,6.43
2023-04-21T22:28:26.276Z,5.50
2023-04-21T22:30:57.657Z,5.53
2023-04-21T22:33:29.000Z,5.00
2023-04-21T22:36:00.289Z,6.10
2023-04-21T22:38:31.544Z,4.17
2023-04-21T22:41:02.878Z,5.07
2023-04-21T22:43:34.243Z,5.83
2023-04-21T22:46:06.772Z,7.60
2023-04-21T22:48:38.231Z,5.27
2023-04-21T22:51:10.213Z,8.63
2023-04-21T22:53:41.480Z,6.47
2023-04-21T22:56:12.852Z,8.60
2023-04-21T22:58:44.129Z,7.20
2023-04-21T23:01:15.964Z,5.00
2023-04-21T23:03:47.588Z,5.60
2023-04-21T23:06:19.168Z,8.53
2023-04-21T23:08:50.544Z,7.73
2023-04-21T23:11:21.882Z,5.03
2023-04-21T23:13:53.812Z,6.60
2023-04-21T23:16:25.157Z,6.00
2023-04-21T23:18:56.497Z,5.47
2023-04-21T23:21:28.137Z,7.00
2023-04-21T23:23:59.484Z,4.47
2023-04-21T23:26:30.843Z,6.73
2023-04-21T23:29:02.134Z,6.03
2023-04-21T23:31:33.524Z,4.93
2023-04-21T23:34:04.896Z,5.10
2023-04-21T23:36:36.228Z,9.47
2023-04-21T23:39:07.500Z,5.50
2023-04-21T23:41:38.969Z,8.23
2023-04-21T23:44:10.736Z,4.43
2023-04-21T23:46:42.091Z,3.97
2023-04-21T23:49:13.411Z,7.93
2023-04-21T23:51:44.767Z,13.33
2023-04-21T23:54:16.161Z,6.50
2023-04-21T23:56:47.476Z,7.50
2023-04-21T23:59:19.225Z,6.97
